sensor_id;sensor_type;location;lat;lon;timestamp;temperature;humidity
22940;DHT22;11636;52.086;5.090;2023-02-11T00:02:09;6.60;99.90
22940;DHT22;11636;52.086;5.090;2023-02-11T00:04:36;6.50;99.90
22940;DHT22;11636;52.086;5.090;2023-02-11T00:07:04;6.60;99.90
22940;DHT22;11636;52.086;5.090;2023-02-11T00:09:38;6.60;99.90
22940;DHT22;11636;52.086;5.090;2023-02-11T00:12:05;6.50;99.90
22940;DHT22;11636;52.086;5.090;2023-02-11T00:14:37;6.50;99.90
22940;DHT22;11636;52.086;5.090;2023-02-11T00:17:10;6.60;99.90
22940;DHT22;11636;52.086;5.090;2023-02-11T00:19:43;6.50;99.90
22940;DHT22;11636;52.086;5.090;2023-02-11T00:22:16;6.50;99.90
22940;DHT22;11636;52.086;5.090;2023-02-11T00:24:44;6.50;99.90
22940;DHT22;11636;52.086;5.090;2023-02-11T00:27:17;6.50;99.90
22940;DHT22;11636;52.086;5.090;2023-02-11T00:29:44;6.40;99.90
22940;DHT22;11636;52.086;5.090;2023-02-11T00:32:22;6.40;99.90
22940;DHT22;11636;52.086;5.090;2023-02-11T00:34:51;6.40;99.90
22940;DHT22;11636;52.086;5.090;2023-02-11T00:37:25;6.40;99.90
22940;DHT22;11636;52.086;5.090;2023-02-11T00:39:52;6.40;99.90
22940;DHT22;11636;52.086;5.090;2023-02-11T00:42:19;6.40;99.90
22940;DHT22;11636;52.086;5.090;2023-02-11T00:44:52;6.40;99.90
22940;DHT22;11636;52.086;5.090;2023-02-11T00:47:19;6.40;99.90
22940;DHT22;11636;52.086;5.090;2023-02-11T00:49:52;6.40;99.90
22940;DHT22;11636;52.086;5.090;2023-02-11T00:52:19;6.40;99.90
22940;DHT22;11636;52.086;5.090;2023-02-11T00:54:46;6.40;99.90
22940;DHT22;11636;52.086;5.090;2023-02-11T00:57:19;6.50;99.90
22940;DHT22;11636;52.086;5.090;2023-02-11T00:59:46;6.40;99.90
22940;DHT22;11636;52.086;5.090;2023-02-11T01:02:19;6.40;99.90
22940;DHT22;11636;52.086;5.090;2023-02-11T01:04:53;6.40;99.90
22940;DHT22;11636;52.086;5.090;2023-02-11T01:07:20;6.50;99.90
22940;DHT22;11636;52.086;5.090;2023-02-11T01:09:47;6.40;99.90
22940;DHT22;11636;52.086;5.090;2023-02-11T01:12:21;6.40;99.90
22940;DHT22;11636;52.086;5.090;2023-02-11T01:14:48;6.40;99.90
22940;DHT22;11636;52.086;5.090;2023-02-11T01:17:33;6.40;99.90
22940;DHT22;11636;52.086;5.090;2023-02-11T01:20:04;6.40;99.90
22940;DHT22;11636;52.086;5.090;2023-02-11T01:22:38;6.40;99.90
22940;DHT22;11636;52.086;5.090;2023-02-11T01:25:06;6.30;99.90
22940;DHT22;11636;52.086;5.090;2023-02-11T01:27:43;6.30;99.90
22940;DHT22;11636;52.086;5.090;2023-02-11T01:30:12;6.40;99.90
22940;DHT22;11636;52.086;5.090;2023-02-11T01:32:46;6.40;99.90
22940;DHT22;11636;52.086;5.090;2023-02-11T01:35:13;6.30;99.90
22940;DHT22;11636;52.086;5.090;2023-02-11T01:37:46;6.30;99.90
22940;DHT22;11636;52.086;5.090;2023-02-11T01:40:15;6.30;99.90
22940;DHT22;11636;52.086;5.090;2023-02-11T01:42:48;6.30;99.90
22940;DHT22;11636;52.086;5.090;2023-02-11T01:50:48;6.20;99.90
22940;DHT22;11636;52.086;5.090;2023-02-11T01:53:23;6.10;99.90
22940;DHT22;11636;52.086;5.090;2023-02-11T01:56:09;6.10;99.90
22940;DHT22;11636;52.086;5.090;2023-02-11T01:59:06;6.10;99.90
22940;DHT22;11636;52.086;5.090;2023-02-11T02:01:44;6.10;99.90
22940;DHT22;11636;52.086;5.090;2023-02-11T02:04:19;6.10;99.90
22940;DHT22;11636;52.086;5.090;2023-02-11T02:06:59;6.00;99.90
22940;DHT22;11636;52.086;5.090;2023-02-11T02:09:32;6.00;99.90
22940;DHT22;11636;52.086;5.090;2023-02-11T02:12:22;5.90;99.90
22940;DHT22;11636;52.086;5.090;2023-02-11T02:14:49;5.80;99.90
22940;DHT22;11636;52.086;5.090;2023-02-11T02:17:36;5.80;99.90
22940;DHT22;11636;52.086;5.090;2023-02-11T02:38:05;5.60;99.90
22940;DHT22;11636;52.086;5.090;2023-02-11T02:41:00;5.50;99.90
22940;DHT22;11636;52.086;5.090;2023-02-11T02:43:40;5.50;99.90
22940;DHT22;11636;52.086;5.090;2023-02-11T02:46:11;5.50;99.90
22940;DHT22;11636;52.086;5.090;2023-02-11T02:48:45;5.40;99.90
22940;DHT22;11636;52.086;5.090;2023-02-11T03:06:10;5.20;99.90
22940;DHT22;11636;52.086;5.090;2023-02-11T03:08:40;5.20;99.90
22940;DHT22;11636;52.086;5.090;2023-02-11T03:11:17;5.20;99.90
22940;DHT22;11636;52.086;5.090;2023-02-11T03:13:46;5.20;99.90
22940;DHT22;11636;52.086;5.090;2023-02-11T03:16:26;5.20;99.90
22940;DHT22;11636;52.086;5.090;2023-02-11T03:19:14;5.20;99.90
22940;DHT22;11636;52.086;5.090;2023-02-11T03:21:50;5.10;99.90
22940;DHT22;11636;52.086;5.090;2023-02-11T03:24:34;5.20;99.90
22940;DHT22;11636;52.086;5.090;2023-02-11T03:27:37;5.20;99.90
22940;DHT22;11636;52.086;5.090;2023-02-11T03:30:19;5.20;99.90
22940;DHT22;11636;52.086;5.090;2023-02-11T03:32:55;5.20;99.90
22940;DHT22;11636;52.086;5.090;2023-02-11T03:35:42;5.20;99.90
22940;DHT22;11636;52.086;5.090;2023-02-11T03:38:22;5.20;99.90
22940;DHT22;11636;52.086;5.090;2023-02-11T03:40:58;5.20;99.90
22940;DHT22;11636;52.086;5.090;2023-02-11T03:43:33;5.20;99.90
22940;DHT22;11636;52.086;5.090;2023-02-11T03:46:08;5.20;99.90
22940;DHT22;11636;52.086;5.090;2023-02-11T03:48:48;5.20;99.90
22940;DHT22;11636;52.086;5.090;2023-02-11T03:51:24;5.10;99.90
22940;DHT22;11636;52.086;5.090;2023-02-11T03:53:54;5.10;99.90
22940;DHT22;11636;52.086;5.090;2023-02-11T03:56:34;5.10;99.90
22940;DHT22;11636;52.086;5.090;2023-02-11T03:59:03;5.00;99.90
22940;DHT22;11636;52.086;5.090;2023-02-11T04:01:36;5.00;99.90
22940;DHT22;11636;52.086;5.090;2023-02-11T04:04:03;5.00;99.90
22940;DHT22;11636;52.086;5.090;2023-02-11T04:06:30;5.00;99.90
22940;DHT22;11636;52.086;5.090;2023-02-11T04:09:04;5.00;99.90
22940;DHT22;11636;52.086;5.090;2023-02-11T04:11:30;5.10;99.90
22940;DHT22;11636;52.086;5.090;2023-02-11T04:13:57;5.10;99.90
22940;DHT22;11636;52.086;5.090;2023-02-11T04:16:31;5.00;99.90
22940;DHT22;11636;52.086;5.090;2023-02-11T04:18:57;5.00;99.90
22940;DHT22;11636;52.086;5.090;2023-02-11T04:21:30;5.10;99.90
22940;DHT22;11636;52.086;5.090;2023-02-11T04:23:57;5.00;99.90
22940;DHT22;11636;52.086;5.090;2023-02-11T04:26:24;5.10;99.90
22940;DHT22;11636;52.086;5.090;2023-02-11T04:28:57;5.10;99.90
22940;DHT22;11636;52.086;5.090;2023-02-11T04:31:25;5.20;99.90
22940;DHT22;11636;52.086;5.090;2023-02-11T04:33:58;5.20;99.90
22940;DHT22;11636;52.086;5.090;2023-02-11T04:36:25;5.20;99.90
22940;DHT22;11636;52.086;5.090;2023-02-11T04:38:52;5.20;99.90
22940;DHT22;11636;52.086;5.090;2023-02-11T04:41:26;5.20;99.90
22940;DHT22;11636;52.086;5.090;2023-02-11T04:43:59;5.20;99.90
22940;DHT22;11636;52.086;5.090;2023-02-11T04:46:26;5.30;99.90
22940;DHT22;11636;52.086;5.090;2023-02-11T04:48:53;5.30;99.90
22940;DHT22;11636;52.086;5.090;2023-02-11T04:51:27;5.30;99.90
22940;DHT22;11636;52.086;5.090;2023-02-11T04:53:53;5.30;99.90
22940;DHT22;11636;52.086;5.090;2023-02-11T04:56:26;5.30;99.90
22940;DHT22;11636;52.086;5.090;2023-02-11T04:58:59;5.40;99.90
22940;DHT22;11636;52.086;5.090;2023-02-11T05:01:26;5.40;99.90
22940;DHT22;11636;52.086;5.090;2023-02-11T05:04:00;5.40;99.90
22940;DHT22;11636;52.086;5.090;2023-02-11T05:06:26;5.40;99.90
22940;DHT22;11636;52.086;5.090;2023-02-11T05:09:00;5.40;99.90
22940;DHT22;11636;52.086;5.090;2023-02-11T05:11:27;5.50;99.90
22940;DHT22;11636;52.086;5.090;2023-02-11T05:13:53;5.50;99.90
22940;DHT22;11636;52.086;5.090;2023-02-11T05:16:27;5.50;99.90
22940;DHT22;11636;52.086;5.090;2023-02-11T05:19:03;5.50;99.90
22940;DHT22;11636;52.086;5.090;2023-02-11T05:21:29;5.50;99.90
22940;DHT22;11636;52.086;5.090;2023-02-11T05:24:03;5.60;99.90
22940;DHT22;11636;52.086;5.090;2023-02-11T05:26:31;5.60;99.90
22940;DHT22;11636;52.086;5.090;2023-02-11T05:29:04;5.50;99.90
22940;DHT22;11636;52.086;5.090;2023-02-11T05:31:31;5.50;99.90
22940;DHT22;11636;52.086;5.090;2023-02-11T05:34:04;5.50;99.90
22940;DHT22;11636;52.086;5.090;2023-02-11T05:36:31;5.50;99.90
22940;DHT22;11636;52.086;5.090;2023-02-11T05:38:59;5.50;99.90
22940;DHT22;11636;52.086;5.090;2023-02-11T05:41:33;5.50;99.90
22940;DHT22;11636;52.086;5.090;2023-02-11T05:43:59;5.50;99.90
22940;DHT22;11636;52.086;5.090;2023-02-11T05:46:26;5.50;99.90
22940;DHT22;11636;52.086;5.090;2023-02-11T05:49:00;5.50;99.90
22940;DHT22;11636;52.086;5.090;2023-02-11T05:51:26;5.60;99.90
22940;DHT22;11636;52.086;5.090;2023-02-11T05:53:53;5.60;99.90
22940;DHT22;11636;52.086;5.090;2023-02-11T05:56:27;5.60;99.90
22940;DHT22;11636;52.086;5.090;2023-02-11T05:58:54;5.60;99.90
22940;DHT22;11636;52.086;5.090;2023-02-11T06:01:28;5.60;99.90
22940;DHT22;11636;52.086;5.090;2023-02-11T06:03:55;5.60;99.90
22940;DHT22;11636;52.086;5.090;2023-02-11T06:06:28;5.60;99.90
22940;DHT22;11636;52.086;5.090;2023-02-11T06:08:55;5.60;99.90
22940;DHT22;11636;52.086;5.090;2023-02-11T06:11:29;5.60;99.90
22940;DHT22;11636;52.086;5.090;2023-02-11T06:13:55;5.60;99.90
22940;DHT22;11636;52.086;5.090;2023-02-11T06:16:29;5.60;99.90
22940;DHT22;11636;52.086;5.090;2023-02-11T06:18:56;5.60;99.90
22940;DHT22;11636;52.086;5.090;2023-02-11T06:21:22;5.70;99.90
22940;DHT22;11636;52.086;5.090;2023-02-11T06:24:11;5.70;99.90
22940;DHT22;11636;52.086;5.090;2023-02-11T06:27:05;5.70;99.90
22940;DHT22;11636;52.086;5.090;2023-02-11T06:29:31;5.70;99.90
22940;DHT22;11636;52.086;5.090;2023-02-11T06:32:08;5.70;99.90
22940;DHT22;11636;52.086;5.090;2023-02-11T06:34:55;5.70;99.90
22940;DHT22;11636;52.086;5.090;2023-02-11T06:37:36;5.70;99.90
22940;DHT22;11636;52.086;5.090;2023-02-11T06:40:03;5.70;99.90
22940;DHT22;11636;52.086;5.090;2023-02-11T06:42:36;5.70;99.90
22940;DHT22;11636;52.086;5.090;2023-02-11T06:45:05;5.70;99.90
22940;DHT22;11636;52.086;5.090;2023-02-11T06:47:41;5.80;99.90
22940;DHT22;11636;52.086;5.090;2023-02-11T06:50:11;5.70;99.90
22940;DHT22;11636;52.086;5.090;2023-02-11T06:52:45;5.80;99.90
22940;DHT22;11636;52.086;5.090;2023-02-11T06:55:12;5.70;99.90
22940;DHT22;11636;52.086;5.090;2023-02-11T06:57:39;5.80;99.90
22940;DHT22;11636;52.086;5.090;2023-02-11T07:00:13;5.80;99.90
22940;DHT22;11636;52.086;5.090;2023-02-11T07:02:52;5.80;99.90
22940;DHT22;11636;52.086;5.090;2023-02-11T07:05:19;5.80;99.90
22940;DHT22;11636;52.086;5.090;2023-02-11T07:07:53;5.80;99.90
22940;DHT22;11636;52.086;5.090;2023-02-11T07:10:20;5.80;99.90
22940;DHT22;11636;52.086;5.090;2023-02-11T07:12:53;5.80;99.90
22940;DHT22;11636;52.086;5.090;2023-02-11T07:15:27;5.80;99.90
22940;DHT22;11636;52.086;5.090;2023-02-11T07:18:00;5.80;99.90
22940;DHT22;11636;52.086;5.090;2023-02-11T07:20:26;5.90;99.90
22940;DHT22;11636;52.086;5.090;2023-02-11T07:23:04;5.80;99.90
22940;DHT22;11636;52.086;5.090;2023-02-11T07:25:31;5.90;99.90
22940;DHT22;11636;52.086;5.090;2023-02-11T07:28:05;5.90;99.90
22940;DHT22;11636;52.086;5.090;2023-02-11T07:30:32;5.90;99.90
22940;DHT22;11636;52.086;5.090;2023-02-11T07:33:10;6.00;99.90
22940;DHT22;11636;52.086;5.090;2023-02-11T07:35:37;6.00;99.90
22940;DHT22;11636;52.086;5.090;2023-02-11T07:38:11;6.00;99.90
22940;DHT22;11636;52.086;5.090;2023-02-11T07:40:38;6.00;99.90
22940;DHT22;11636;52.086;5.090;2023-02-11T07:43:11;6.10;99.90
22940;DHT22;11636;52.086;5.090;2023-02-11T07:45:38;6.10;99.90
22940;DHT22;11636;52.086;5.090;2023-02-11T07:48:12;6.20;99.90
22940;DHT22;11636;52.086;5.090;2023-02-11T07:50:39;6.20;99.90
22940;DHT22;11636;52.086;5.090;2023-02-11T07:53:12;6.30;99.90
22940;DHT22;11636;52.086;5.090;2023-02-11T07:55:41;6.30;99.90
22940;DHT22;11636;52.086;5.090;2023-02-11T07:58:08;6.30;99.90
22940;DHT22;11636;52.086;5.090;2023-02-11T08:00:42;6.30;99.90
22940;DHT22;11636;52.086;5.090;2023-02-11T08:03:09;6.30;99.90
22940;DHT22;11636;52.086;5.090;2023-02-11T08:05:37;6.30;99.90
22940;DHT22;11636;52.086;5.090;2023-02-11T08:08:11;6.30;99.90
22940;DHT22;11636;52.086;5.090;2023-02-11T08:10:38;6.40;99.90
22940;DHT22;11636;52.086;5.090;2023-02-11T08:13:04;6.40;99.90
22940;DHT22;11636;52.086;5.090;2023-02-11T08:15:38;6.40;99.90
22940;DHT22;11636;52.086;5.090;2023-02-11T08:18:11;6.40;99.90
22940;DHT22;11636;52.086;5.090;2023-02-11T08:20:38;6.40;99.90
22940;DHT22;11636;52.086;5.090;2023-02-11T08:23:06;6.40;99.90
22940;DHT22;11636;52.086;5.090;2023-02-11T08:25:39;6.40;99.90
22940;DHT22;11636;52.086;5.090;2023-02-11T08:28:06;6.40;99.90
22940;DHT22;11636;52.086;5.090;2023-02-11T08:30:35;6.50;99.90
22940;DHT22;11636;52.086;5.090;2023-02-11T08:33:14;6.50;99.90
22940;DHT22;11636;52.086;5.090;2023-02-11T08:35:41;6.50;99.90
22940;DHT22;11636;52.086;5.090;2023-02-11T08:38:16;6.50;99.90
22940;DHT22;11636;52.086;5.090;2023-02-11T08:40:43;6.60;99.90
22940;DHT22;11636;52.086;5.090;2023-02-11T08:43:10;6.60;99.90
22940;DHT22;11636;52.086;5.090;2023-02-11T08:45:43;6.60;99.90
22940;DHT22;11636;52.086;5.090;2023-02-11T08:48:10;6.70;99.90
22940;DHT22;11636;52.086;5.090;2023-02-11T08:50:44;6.70;99.90
22940;DHT22;11636;52.086;5.090;2023-02-11T08:53:10;6.70;99.90
22940;DHT22;11636;52.086;5.090;2023-02-11T08:55:51;6.80;99.90
22940;DHT22;11636;52.086;5.090;2023-02-11T08:58:20;6.80;99.90
22940;DHT22;11636;52.086;5.090;2023-02-11T09:00:54;6.80;99.90
22940;DHT22;11636;52.086;5.090;2023-02-11T09:03:21;6.90;99.90
22940;DHT22;11636;52.086;5.090;2023-02-11T09:05:55;6.90;99.90
22940;DHT22;11636;52.086;5.090;2023-02-11T09:08:22;6.90;99.90
22940;DHT22;11636;52.086;5.090;2023-02-11T09:10:56;6.90;99.90
22940;DHT22;11636;52.086;5.090;2023-02-11T09:13:23;7.00;99.90
22940;DHT22;11636;52.086;5.090;2023-02-11T09:15:50;7.00;99.90
22940;DHT22;11636;52.086;5.090;2023-02-11T09:18:23;7.10;99.90
22940;DHT22;11636;52.086;5.090;2023-02-11T09:21:07;7.10;99.90
22940;DHT22;11636;52.086;5.090;2023-02-11T09:23:34;7.20;99.90
22940;DHT22;11636;52.086;5.090;2023-02-11T09:26:12;7.20;99.90
22940;DHT22;11636;52.086;5.090;2023-02-11T09:28:43;7.20;99.90
22940;DHT22;11636;52.086;5.090;2023-02-11T09:31:20;7.30;99.90
22940;DHT22;11636;52.086;5.090;2023-02-11T09:33:50;7.30;99.90
22940;DHT22;11636;52.086;5.090;2023-02-11T09:36:27;7.40;99.90
22940;DHT22;11636;52.086;5.090;2023-02-11T09:38:57;7.40;99.90
22940;DHT22;11636;52.086;5.090;2023-02-11T09:41:52;7.50;99.90
22940;DHT22;11636;52.086;5.090;2023-02-11T09:44:26;7.60;99.90
22940;DHT22;11636;52.086;5.090;2023-02-11T09:47:03;7.60;99.90
22940;DHT22;11636;52.086;5.090;2023-02-11T09:49:40;7.70;99.90
22940;DHT22;11636;52.086;5.090;2023-02-11T09:52:36;7.70;99.90
22940;DHT22;11636;52.086;5.090;2023-02-11T09:57:47;7.90;99.90
22940;DHT22;11636;52.086;5.090;2023-02-11T10:00:18;8.00;99.90
22940;DHT22;11636;52.086;5.090;2023-02-11T10:06:06;8.00;99.90
22940;DHT22;11636;52.086;5.090;2023-02-11T10:09:03;8.00;99.90
22940;DHT22;11636;52.086;5.090;2023-02-11T10:14:46;8.10;99.90
22940;DHT22;11636;52.086;5.090;2023-02-11T10:20:55;8.20;99.90
22940;DHT22;11636;52.086;5.090;2023-02-11T10:23:30;8.20;99.90
22940;DHT22;11636;52.086;5.090;2023-02-11T10:26:16;8.20;99.90
22940;DHT22;11636;52.086;5.090;2023-02-11T10:28:51;8.20;99.90
22940;DHT22;11636;52.086;5.090;2023-02-11T10:31:25;8.20;99.90
22940;DHT22;11636;52.086;5.090;2023-02-11T10:34:11;8.20;99.90
22940;DHT22;11636;52.086;5.090;2023-02-11T10:36:43;8.20;99.90
22940;DHT22;11636;52.086;5.090;2023-02-11T10:39:18;8.30;99.90
22940;DHT22;11636;52.086;5.090;2023-02-11T10:41:53;8.40;99.90
22940;DHT22;11636;52.086;5.090;2023-02-11T10:44:32;8.50;99.90
22940;DHT22;11636;52.086;5.090;2023-02-11T10:47:13;8.70;99.90
22940;DHT22;11636;52.086;5.090;2023-02-11T10:49:49;8.90;99.90
22940;DHT22;11636;52.086;5.090;2023-02-11T10:52:25;9.00;99.90
22940;DHT22;11636;52.086;5.090;2023-02-11T10:55:08;9.20;99.90
22940;DHT22;11636;52.086;5.090;2023-02-11T10:57:42;9.30;99.90
22940;DHT22;11636;52.086;5.090;2023-02-11T11:02:57;9.60;99.90
22940;DHT22;11636;52.086;5.090;2023-02-11T11:05:35;9.70;99.90
22940;DHT22;11636;52.086;5.090;2023-02-11T11:08:06;9.70;99.90
22940;DHT22;11636;52.086;5.090;2023-02-11T11:10:42;9.80;99.90
22940;DHT22;11636;52.086;5.090;2023-02-11T11:13:37;9.80;99.90
22940;DHT22;11636;52.086;5.090;2023-02-11T11:18:42;9.70;99.90
22940;DHT22;11636;52.086;5.090;2023-02-11T11:21:52;9.70;99.90
22940;DHT22;11636;52.086;5.090;2023-02-11T11:26:56;9.80;99.90
22940;DHT22;11636;52.086;5.090;2023-02-11T11:29:33;9.80;99.90
22940;DHT22;11636;52.086;5.090;2023-02-11T11:32:19;10.00;99.90
22940;DHT22;11636;52.086;5.090;2023-02-11T11:34:52;10.20;99.90
22940;DHT22;11636;52.086;5.090;2023-02-11T11:37:33;10.30;99.90
22940;DHT22;11636;52.086;5.090;2023-02-11T11:40:09;10.40;99.90
22940;DHT22;11636;52.086;5.090;2023-02-11T11:42:43;10.40;99.90
22940;DHT22;11636;52.086;5.090;2023-02-11T11:56:08;10.50;99.90
22940;DHT22;11636;52.086;5.090;2023-02-11T11:58:43;10.40;99.90
22940;DHT22;11636;52.086;5.090;2023-02-11T12:01:36;10.50;99.90
22940;DHT22;11636;52.086;5.090;2023-02-11T12:10:03;10.30;99.90
22940;DHT22;11636;52.086;5.090;2023-02-11T12:21:55;10.10;99.90
22940;DHT22;11636;52.086;5.090;2023-02-11T12:24:46;10.00;99.90
22940;DHT22;11636;52.086;5.090;2023-02-11T12:39:02;10.30;99.90
22940;DHT22;11636;52.086;5.090;2023-02-11T12:42:01;10.30;99.90
22940;DHT22;11636;52.086;5.090;2023-02-11T12:45:25;10.40;99.90
22940;DHT22;11636;52.086;5.090;2023-02-11T12:54:02;10.60;99.90
22940;DHT22;11636;52.086;5.090;2023-02-11T12:59:16;10.50;99.90
22940;DHT22;11636;52.086;5.090;2023-02-11T13:02:03;10.50;99.90
22940;DHT22;11636;52.086;5.090;2023-02-11T13:04:39;10.60;99.90
22940;DHT22;11636;52.086;5.090;2023-02-11T13:07:22;10.60;99.90
22940;DHT22;11636;52.086;5.090;2023-02-11T13:09:58;10.60;99.90
22940;DHT22;11636;52.086;5.090;2023-02-11T13:12:35;10.60;99.90
22940;DHT22;11636;52.086;5.090;2023-02-11T13:15:21;10.60;99.90
22940;DHT22;11636;52.086;5.090;2023-02-11T13:18:00;10.70;99.90
22940;DHT22;11636;52.086;5.090;2023-02-11T13:23:30;10.80;99.90
22940;DHT22;11636;52.086;5.090;2023-02-11T13:29:13;10.70;99.90
22940;DHT22;11636;52.086;5.090;2023-02-11T13:32:05;10.70;99.90
22940;DHT22;11636;52.086;5.090;2023-02-11T13:38:02;10.60;99.90
22940;DHT22;11636;52.086;5.090;2023-02-11T13:40:35;10.60;99.90
22940;DHT22;11636;52.086;5.090;2023-02-11T13:43:24;10.70;99.90
22940;DHT22;11636;52.086;5.090;2023-02-11T13:46:05;10.60;99.90
22940;DHT22;11636;52.086;5.090;2023-02-11T13:48:49;10.60;99.90
22940;DHT22;11636;52.086;5.090;2023-02-11T13:51:36;10.70;99.90
22940;DHT22;11636;52.086;5.090;2023-02-11T13:54:18;10.70;99.90
22940;DHT22;11636;52.086;5.090;2023-02-11T13:59:54;10.60;99.90
22940;DHT22;11636;52.086;5.090;2023-02-11T14:02:31;10.70;99.90
22940;DHT22;11636;52.086;5.090;2023-02-11T14:05:31;10.60;99.90
22940;DHT22;11636;52.086;5.090;2023-02-11T14:08:24;10.60;99.90
22940;DHT22;11636;52.086;5.090;2023-02-11T14:19:41;10.50;99.90
22940;DHT22;11636;52.086;5.090;2023-02-11T14:24:53;10.40;99.90
22940;DHT22;11636;52.086;5.090;2023-02-11T14:27:39;10.40;99.90
22940;DHT22;11636;52.086;5.090;2023-02-11T14:30:30;10.40;99.90
22940;DHT22;11636;52.086;5.090;2023-02-11T14:42:02;10.20;99.90
22940;DHT22;11636;52.086;5.090;2023-02-11T14:44:31;10.20;99.90
22940;DHT22;11636;52.086;5.090;2023-02-11T14:47:05;10.20;99.90
22940;DHT22;11636;52.086;5.090;2023-02-11T14:49:39;10.30;99.90
22940;DHT22;11636;52.086;5.090;2023-02-11T14:52:25;10.20;99.90
22940;DHT22;11636;52.086;5.090;2023-02-11T14:55:36;10.20;99.90
22940;DHT22;11636;52.086;5.090;2023-02-11T15:00:59;10.10;99.90
22940;DHT22;11636;52.086;5.090;2023-02-11T15:03:39;10.10;99.90
22940;DHT22;11636;52.086;5.090;2023-02-11T15:06:21;10.10;99.90
22940;DHT22;11636;52.086;5.090;2023-02-11T15:09:25;10.00;99.90
22940;DHT22;11636;52.086;5.090;2023-02-11T15:12:03;10.00;99.90
22940;DHT22;11636;52.086;5.090;2023-02-11T15:14:38;10.00;99.90
22940;DHT22;11636;52.086;5.090;2023-02-11T15:17:16;10.00;99.90
22940;DHT22;11636;52.086;5.090;2023-02-11T15:19:47;9.90;99.90
22940;DHT22;11636;52.086;5.090;2023-02-11T15:22:26;9.90;99.90
22940;DHT22;11636;52.086;5.090;2023-02-11T15:25:10;9.90;99.90
22940;DHT22;11636;52.086;5.090;2023-02-11T15:27:50;9.90;99.90
22940;DHT22;11636;52.086;5.090;2023-02-11T15:33:00;9.80;99.90
22940;DHT22;11636;52.086;5.090;2023-02-11T15:35:34;9.70;99.90
22940;DHT22;11636;52.086;5.090;2023-02-11T15:38:10;9.70;99.90
22940;DHT22;11636;52.086;5.090;2023-02-11T15:40:38;9.70;99.90
22940;DHT22;11636;52.086;5.090;2023-02-11T15:43:17;9.70;99.90
22940;DHT22;11636;52.086;5.090;2023-02-11T15:51:16;9.70;99.90
22940;DHT22;11636;52.086;5.090;2023-02-11T15:53:58;9.60;99.90
22940;DHT22;11636;52.086;5.090;2023-02-11T15:56:40;9.50;99.90
22940;DHT22;11636;52.086;5.090;2023-02-11T15:59:24;9.50;99.90
22940;DHT22;11636;52.086;5.090;2023-02-11T16:01:52;9.50;99.90
22940;DHT22;11636;52.086;5.090;2023-02-11T16:04:26;9.50;99.90
22940;DHT22;11636;52.086;5.090;2023-02-11T16:07:00;9.40;99.90
22940;DHT22;11636;52.086;5.090;2023-02-11T16:09:34;9.40;99.90
22940;DHT22;11636;52.086;5.090;2023-02-11T16:12:23;9.30;99.90
22940;DHT22;11636;52.086;5.090;2023-02-11T16:14:50;9.30;99.90
22940;DHT22;11636;52.086;5.090;2023-02-11T16:17:29;9.30;99.90
22940;DHT22;11636;52.086;5.090;2023-02-11T16:19:56;9.20;99.90
22940;DHT22;11636;52.086;5.090;2023-02-11T16:22:30;9.20;99.90
22940;DHT22;11636;52.086;5.090;2023-02-11T16:25:17;9.20;99.90
22940;DHT22;11636;52.086;5.090;2023-02-11T16:27:52;9.10;99.90
22940;DHT22;11636;52.086;5.090;2023-02-11T16:30:35;9.10;99.90
22940;DHT22;11636;52.086;5.090;2023-02-11T16:33:03;9.00;99.90
22940;DHT22;11636;52.086;5.090;2023-02-11T16:35:37;9.00;99.90
22940;DHT22;11636;52.086;5.090;2023-02-11T16:38:05;9.00;99.90
22940;DHT22;11636;52.086;5.090;2023-02-11T16:40:39;9.00;99.90
22940;DHT22;11636;52.086;5.090;2023-02-11T16:43:08;9.00;99.90
22940;DHT22;11636;52.086;5.090;2023-02-11T16:45:42;8.90;99.90
22940;DHT22;11636;52.086;5.090;2023-02-11T16:48:16;8.90;99.90
22940;DHT22;11636;52.086;5.090;2023-02-11T16:50:50;8.90;99.90
22940;DHT22;11636;52.086;5.090;2023-02-11T16:53:26;8.80;99.90
22940;DHT22;11636;52.086;5.090;2023-02-11T16:55:58;8.80;99.90
22940;DHT22;11636;52.086;5.090;2023-02-11T16:58:31;8.80;99.90
22940;DHT22;11636;52.086;5.090;2023-02-11T17:01:06;8.70;99.90
22940;DHT22;11636;52.086;5.090;2023-02-11T17:03:40;8.70;99.90
22940;DHT22;11636;52.086;5.090;2023-02-11T17:06:09;8.70;99.90
22940;DHT22;11636;52.086;5.090;2023-02-11T17:08:40;8.70;99.90
22940;DHT22;11636;52.086;5.090;2023-02-11T17:11:14;8.70;99.90
22940;DHT22;11636;52.086;5.090;2023-02-11T17:13:43;8.70;99.90
22940;DHT22;11636;52.086;5.090;2023-02-11T17:16:20;8.70;99.90
22940;DHT22;11636;52.086;5.090;2023-02-11T17:18:50;8.70;99.90
22940;DHT22;11636;52.086;5.090;2023-02-11T17:21:23;8.70;99.90
22940;DHT22;11636;52.086;5.090;2023-02-11T17:23:58;8.70;99.90
22940;DHT22;11636;52.086;5.090;2023-02-11T17:26:32;8.70;99.90
22940;DHT22;11636;52.086;5.090;2023-02-11T17:29:04;8.70;99.90
22940;DHT22;11636;52.086;5.090;2023-02-11T17:31:35;8.70;99.90
22940;DHT22;11636;52.086;5.090;2023-02-11T17:34:11;8.70;99.90
22940;DHT22;11636;52.086;5.090;2023-02-11T17:36:44;8.70;99.90
22940;DHT22;11636;52.086;5.090;2023-02-11T17:39:17;8.60;99.90
22940;DHT22;11636;52.086;5.090;2023-02-11T17:41:55;8.60;99.90
22940;DHT22;11636;52.086;5.090;2023-02-11T17:44:29;8.60;99.90
22940;DHT22;11636;52.086;5.090;2023-02-11T17:46:56;8.60;99.90
22940;DHT22;11636;52.086;5.090;2023-02-11T17:49:34;8.60;99.90
22940;DHT22;11636;52.086;5.090;2023-02-11T17:52:01;8.60;99.90
22940;DHT22;11636;52.086;5.090;2023-02-11T17:54:35;8.60;99.90
22940;DHT22;11636;52.086;5.090;2023-02-11T17:57:06;8.60;99.90
22940;DHT22;11636;52.086;5.090;2023-02-11T17:59:33;8.60;99.90
22940;DHT22;11636;52.086;5.090;2023-02-11T18:02:12;8.60;99.90
22940;DHT22;11636;52.086;5.090;2023-02-11T18:04:39;8.60;99.90
22940;DHT22;11636;52.086;5.090;2023-02-11T18:07:13;8.50;99.90
22940;DHT22;11636;52.086;5.090;2023-02-11T18:09:48;8.50;99.90
22940;DHT22;11636;52.086;5.090;2023-02-11T18:12:15;8.50;99.90
22940;DHT22;11636;52.086;5.090;2023-02-11T18:14:57;8.50;99.90
22940;DHT22;11636;52.086;5.090;2023-02-11T18:17:24;8.50;99.90
22940;DHT22;11636;52.086;5.090;2023-02-11T18:19:56;8.50;99.90
22940;DHT22;11636;52.086;5.090;2023-02-11T18:22:35;8.50;99.90
22940;DHT22;11636;52.086;5.090;2023-02-11T18:25:06;8.50;99.90
22940;DHT22;11636;52.086;5.090;2023-02-11T18:27:41;8.50;99.90
22940;DHT22;11636;52.086;5.090;2023-02-11T18:30:14;8.40;99.90
22940;DHT22;11636;52.086;5.090;2023-02-11T18:32:53;8.50;99.90
22940;DHT22;11636;52.086;5.090;2023-02-11T18:35:31;8.40;99.90
22940;DHT22;11636;52.086;5.090;2023-02-11T18:37:58;8.40;99.90
22940;DHT22;11636;52.086;5.090;2023-02-11T18:40:31;8.40;99.90
22940;DHT22;11636;52.086;5.090;2023-02-11T18:42:57;8.40;99.90
22940;DHT22;11636;52.086;5.090;2023-02-11T18:45:25;8.30;99.90
22940;DHT22;11636;52.086;5.090;2023-02-11T18:48:01;8.40;99.90
22940;DHT22;11636;52.086;5.090;2023-02-11T18:50:30;8.40;99.90
22940;DHT22;11636;52.086;5.090;2023-02-11T18:53:04;8.30;99.90
22940;DHT22;11636;52.086;5.090;2023-02-11T18:55:31;8.30;99.90
22940;DHT22;11636;52.086;5.090;2023-02-11T18:58:04;8.30;99.90
22940;DHT22;11636;52.086;5.090;2023-02-11T19:00:32;8.30;99.90